Time;durP1;ratioP1;P1;durP2;ratioP2;P2;SDS_P1;SDS_P2;PMS_P1;PMS_P2;Temp;Humidity;BMP_temperature;BMP_pressure;BME280_temperature;BME280_humidity;BME280_pressure;Samples;Min_cycle;Max_cycle;Signal;HPM_P1;HPM_P2
2023/07/18 00:01:43;;;;;;;;;;;;;;;27.28;54.65;100078.69;4442216;32;35131;-78
2023/07/18 00:04:11;;;;;;;;;;;;;;;27.60;53.47;100085.13;4444971;32;34049;-77
2023/07/18 00:06:41;;;;;;;;;;;;;;;27.63;52.87;100090.41;4447431;32;34600;-78
2023/07/18 00:09:09;;;;;;;;;;;;;;;27.60;52.80;100086.03;4439634;32;33325;-78
2023/07/18 00:11:36;;;;;;;;;;;;;;;27.62;52.22;100084.22;4426609;32;33560;-77
2023/07/18 00:14:04;;;;;;;;;;;;;;;27.54;52.51;100080.81;4445920;32;34175;-78
2023/07/18 00:16:32;;;;;;;;;;;;;;;27.35;53.26;100092.72;4443793;32;34059;-78
2023/07/18 00:19:00;;;;;;;;;;;;;;;27.15;53.93;100085.97;4434557;32;33004;-77
2023/07/18 00:21:27;;;;;;;;;;;;;;;27.39;53.51;100091.75;4433288;32;34055;-78
2023/07/18 00:23:55;;;;;;;;;;;;;;;26.95;55.00;100090.81;4450448;32;33833;-77
2023/07/18 00:26:24;;;;;;;;;;;;;;;27.24;54.04;100088.50;4434738;32;34085;-78
2023/07/18 00:28:54;;;;;;;;;;;;;;;27.25;53.66;100071.66;4449448;32;33609;-78
2023/07/18 00:31:21;;;;;;;;;;;;;;;27.10;54.10;100084.31;4450812;32;34273;-77
2023/07/18 00:33:49;;;;;;;;;;;;;;;27.18;54.03;100090.38;4448635;32;34012;-78
2023/07/18 00:36:17;;;;;;;;;;;;;;;27.09;54.46;100082.56;4438812;32;34865;-77
2023/07/18 00:38:44;;;;;;;;;;;;;;;27.19;54.41;100066.41;4447303;32;33188;-78
2023/07/18 00:41:12;;;;;;;;;;;;;;;27.33;54.05;100073.28;4438108;32;34905;-78
2023/07/18 00:43:39;;;;;;;;;;;;;;;27.40;53.83;100077.56;4441076;32;34115;-77
2023/07/18 00:46:07;;;;;;;;;;;;;;;27.25;54.35;100069.00;4450012;32;34990;-77
2023/07/18 00:48:36;;;;;;;;;;;;;;;27.32;54.05;100076.84;4431243;32;33305;-77
2023/07/18 00:51:09;;;;;;;;;;;;;;;27.05;54.78;100069.31;4423996;32;33723;-78
2023/07/18 00:53:39;;;;;;;;;;;;;;;26.88;55.31;100074.94;4430924;32;34195;-78
2023/07/18 00:56:06;;;;;;;;;;;;;;;26.88;55.33;100069.62;4438537;32;34140;-75
2023/07/18 00:58:33;;;;;;;;;;;;;;;26.86;55.29;100076.75;4434160;32;33257;-75
2023/07/18 01:01:01;;;;;;;;;;;;;;;26.80;55.50;100079.53;4429910;32;34060;-75
2023/07/18 01:03:29;;;;;;;;;;;;;;;26.86;55.15;100076.75;4437726;32;33760;-74
2023/07/18 01:05:57;;;;;;;;;;;;;;;26.83;55.13;100071.50;4448458;32;33892;-75
2023/07/18 01:08:24;;;;;;;;;;;;;;;26.80;55.26;100086.62;4447524;32;33124;-75
2023/07/18 01:10:52;;;;;;;;;;;;;;;26.90;54.92;100077.59;4441683;32;33720;-75
2023/07/18 01:13:19;;;;;;;;;;;;;;;26.75;55.48;100078.72;4447459;32;33975;-75
2023/07/18 01:15:46;;;;;;;;;;;;;;;26.76;55.50;100075.16;4446899;32;35232;-75
2023/07/18 01:18:14;;;;;;;;;;;;;;;26.74;55.58;100076.97;4443691;32;33186;-75
2023/07/18 01:20:44;;;;;;;;;;;;;;;26.35;56.99;100071.37;4433153;32;33931;-75
2023/07/18 01:23:12;;;;;;;;;;;;;;;26.63;56.58;100063.00;4430771;32;33495;-75
2023/07/18 01:25:40;;;;;;;;;;;;;;;26.96;56.11;100060.66;4449624;32;35428;-75
2023/07/18 01:28:08;;;;;;;;;;;;;;;27.21;55.37;100059.25;4452743;32;33850;-75
2023/07/18 01:30:35;;;;;;;;;;;;;;;27.17;55.45;100056.72;4448559;32;34804;-76
2023/07/18 01:33:03;;;;;;;;;;;;;;;27.35;54.61;100058.16;4429278;32;34045;-75
2023/07/18 01:35:30;;;;;;;;;;;;;;;27.38;53.94;100055.44;4442421;32;33902;-75
2023/07/18 01:37:58;;;;;;;;;;;;;;;27.49;53.33;100045.47;4445913;32;33135;-75
2023/07/18 01:40:26;;;;;;;;;;;;;;;27.11;54.21;100054.19;4454095;32;34386;-75
2023/07/18 01:42:54;;;;;;;;;;;;;;;27.33;53.29;100049.34;4446362;32;34771;-75
2023/07/18 01:45:22;;;;;;;;;;;;;;;27.22;53.16;100050.41;4447233;32;34209;-75
2023/07/18 01:47:49;;;;;;;;;;;;;;;27.15;52.91;100051.41;4448301;32;34119;-75
2023/07/18 01:50:17;;;;;;;;;;;;;;;26.94;53.43;100058.00;4445519;32;33872;-75
2023/07/18 01:52:46;;;;;;;;;;;;;;;26.81;53.99;100060.03;4437608;32;33395;-75
2023/07/18 01:55:14;;;;;;;;;;;;;;;26.48;54.97;100064.97;4435529;32;33968;-75
2023/07/18 01:57:43;;;;;;;;;;;;;;;26.66;54.45;100068.28;4441207;32;31826;-75
2023/07/18 02:00:11;;;;;;;;;;;;;;;26.66;54.31;100062.97;4447131;32;34018;-76
2023/07/18 02:02:40;;;;;;;;;;;;;;;26.46;55.12;100056.16;4446725;32;33558;-75
2023/07/18 02:05:08;;;;;;;;;;;;;;;26.73;54.23;100071.69;4451239;32;34332;-76
2023/07/18 02:07:35;;;;;;;;;;;;;;;26.78;53.62;100081.34;4454026;32;33662;-75
2023/07/18 02:10:03;;;;;;;;;;;;;;;26.73;53.68;100087.63;4450071;32;34144;-75
2023/07/18 02:12:31;;;;;;;;;;;;;;;26.62;54.30;100095.78;4451714;32;34002;-76
2023/07/18 02:14:58;;;;;;;;;;;;;;;26.63;55.01;100085.13;4449372;32;34005;-75
2023/07/18 02:17:28;;;;;;;;;;;;;;;26.85;54.31;100079.47;4442934;32;33221;-75
2023/07/18 02:19:55;;;;;;;;;;;;;;;26.72;54.86;100086.75;4452415;32;33636;-75
2023/07/18 02:22:22;;;;;;;;;;;;;;;26.67;54.51;100096.56;4453913;32;33972;-75
2023/07/18 02:24:50;;;;;;;;;;;;;;;26.51;55.21;100095.94;4443130;32;34412;-75
2023/07/18 02:27:19;;;;;;;;;;;;;;;26.48;54.92;100095.97;4443523;32;33248;-75
2023/07/18 02:29:47;;;;;;;;;;;;;;;26.68;54.24;100103.66;4445396;32;33342;-76
2023/07/18 02:32:16;;;;;;;;;;;;;;;26.66;54.19;100105.47;4440118;32;33640;-76
2023/07/18 02:34:44;;;;;;;;;;;;;;;26.70;54.06;100112.47;4449686;32;33983;-76
2023/07/18 02:37:11;;;;;;;;;;;;;;;26.73;53.96;100109.75;4427742;32;34077;-75
2023/07/18 02:39:39;;;;;;;;;;;;;;;26.64;54.25;100108.16;4450462;32;35083;-75
2023/07/18 02:42:06;;;;;;;;;;;;;;;26.57;54.49;100110.88;4439679;32;34280;-75
2023/07/18 02:44:34;;;;;;;;;;;;;;;26.56;54.61;100109.13;4453201;32;35049;-75
2023/07/18 02:47:01;;;;;;;;;;;;;;;26.51;54.84;100117.19;4439192;32;33338;-76
2023/07/18 02:49:28;;;;;;;;;;;;;;;26.40;55.25;100125.28;4437228;32;33781;-76
2023/07/18 02:51:56;;;;;;;;;;;;;;;26.38;55.38;100127.09;4454420;32;34201;-76
2023/07/18 02:54:24;;;;;;;;;;;;;;;26.44;55.25;100127.03;4440118;32;33619;-75
2023/07/18 02:56:51;;;;;;;;;;;;;;;26.40;55.40;100143.03;4439494;32;33459;-76
2023/07/18 02:59:21;;;;;;;;;;;;;;;26.39;55.46;100142.16;4438641;32;33856;-75
2023/07/18 03:01:54;;;;;;;;;;;;;;;26.32;55.62;100137.81;4442207;32;34251;-75
2023/07/18 03:04:21;;;;;;;;;;;;;;;26.36;55.72;100139.53;4446485;32;34863;-75
2023/07/18 03:06:51;;;;;;;;;;;;;;;26.43;55.85;100145.66;4440615;32;32973;-76
2023/07/18 03:09:19;;;;;;;;;;;;;;;26.41;55.76;100150.97;4453346;32;33986;-75
2023/07/18 03:11:46;;;;;;;;;;;;;;;26.37;55.97;100146.59;4454215;32;34240;-76
2023/07/18 03:14:14;;;;;;;;;;;;;;;26.36;56.13;100144.84;4453702;32;34007;-75
2023/07/18 03:16:41;;;;;;;;;;;;;;;26.15;56.96;100137.19;4442956;32;33825;-76
2023/07/18 03:19:10;;;;;;;;;;;;;;;26.07;57.63;100142.59;4443216;32;33885;-76
2023/07/18 03:21:37;;;;;;;;;;;;;;;26.07;57.72;100137.28;4447688;32;32503;-78
2023/07/18 03:24:07;;;;;;;;;;;;;;;25.91;58.22;100131.31;4447624;32;34974;-77
2023/07/18 03:26:37;;;;;;;;;;;;;;;26.08;57.44;100131.97;4431525;32;33740;-77
2023/07/18 03:29:05;;;;;;;;;;;;;;;26.17;57.27;100128.28;4448705;32;33672;-77
2023/07/18 03:31:33;;;;;;;;;;;;;;;26.08;57.47;100124.00;4444544;32;33892;-78
2023/07/18 03:34:01;;;;;;;;;;;;;;;26.23;56.65;100127.31;4452154;32;34319;-77
2023/07/18 03:36:28;;;;;;;;;;;;;;;26.03;57.29;100128.47;4448672;32;33551;-78
2023/07/18 03:38:56;;;;;;;;;;;;;;;26.13;57.30;100136.31;4449902;32;33652;-78
2023/07/18 03:41:25;;;;;;;;;;;;;;;26.08;57.08;100131.97;4447424;32;34646;-78
2023/07/18 03:43:53;;;;;;;;;;;;;;;26.03;57.74;100136.44;4445252;32;34293;-78
2023/07/18 03:46:21;;;;;;;;;;;;;;;26.04;57.43;100127.59;4442721;32;33788;-77
2023/07/18 03:48:50;;;;;;;;;;;;;;;26.01;57.77;100132.94;4426302;32;33939;-78
2023/07/18 03:51:18;;;;;;;;;;;;;;;25.85;58.54;100136.66;4450155;32;34132;-78
2023/07/18 03:53:47;;;;;;;;;;;;;;;25.95;58.65;100138.31;4447877;32;33491;-78
2023/07/18 03:56:15;;;;;;;;;;;;;;;25.92;58.36;100148.09;4439189;32;33060;-78
2023/07/18 03:58:42;;;;;;;;;;;;;;;25.97;58.36;100147.16;4438711;32;34983;-78
2023/07/18 04:01:10;;;;;;;;;;;;;;;25.95;58.33;100143.62;4444647;32;34141;-78
2023/07/18 04:03:38;;;;;;;;;;;;;;;25.95;58.28;100148.94;4445149;32;34110;-77
2023/07/18 04:06:07;;;;;;;;;;;;;;;25.86;58.88;100144.59;4446530;32;33117;-77
2023/07/18 04:08:34;;;;;;;;;;;;;;;25.81;59.24;100140.25;4447244;32;34901;-78
2023/07/18 04:11:01;;;;;;;;;;;;;;;26.03;58.59;100138.22;4447814;32;34737;-77
2023/07/18 04:13:29;;;;;;;;;;;;;;;25.99;59.10;100145.34;4438423;32;33729;-77
2023/07/18 04:15:56;;;;;;;;;;;;;;;25.80;60.22;100138.47;4442721;32;33111;-78
2023/07/18 04:18:24;;;;;;;;;;;;;;;25.90;59.79;100148.97;4428844;32;35077;-78
2023/07/18 04:20:58;;;;;;;;;;;;;;;25.98;60.13;100150.66;4442195;32;33510;-77
2023/07/18 04:23:25;;;;;;;;;;;;;;;26.00;60.07;100149.78;4446289;32;34297;-79
2023/07/18 04:25:53;;;;;;;;;;;;;;;25.99;60.32;100148.00;4446622;32;33538;-79
2023/07/18 04:28:20;;;;;;;;;;;;;;;26.14;59.05;100154.03;4438448;32;34945;-80
2023/07/18 04:30:48;;;;;;;;;;;;;;;26.23;58.90;100153.88;4443633;32;35042;-81
2023/07/18 04:33:15;;;;;;;;;;;;;;;26.26;58.96;100154.72;4427998;32;34244;-79
2023/07/18 04:35:44;;;;;;;;;;;;;;;26.43;58.74;100154.47;4438943;32;32555;-79
2023/07/18 04:38:13;;;;;;;;;;;;;;;26.52;58.16;100152.56;4439027;32;33664;-80
2023/07/18 04:40:41;;;;;;;;;;;;;;;26.58;58.66;100168.41;4445904;32;34080;-79
2023/07/18 04:43:08;;;;;;;;;;;;;;;26.56;58.53;100156.94;4438974;32;34904;-79
2023/07/18 04:45:46;;;;;;;;;;;;;;;26.56;57.86;100154.28;4453789;32;33064;-79
2023/07/18 04:48:14;;;;;;;;;;;;;;;26.67;57.43;100157.69;4453399;32;34064;-79
2023/07/18 04:50:42;;;;;;;;;;;;;;;26.86;56.84;100167.13;4444638;32;33978;-79
2023/07/18 04:53:09;;;;;;;;;;;;;;;26.96;56.30;100174.94;4444683;32;34190;-79
2023/07/18 04:55:37;;;;;;;;;;;;;;;27.05;56.24;100182.78;4446784;32;34047;-79
2023/07/18 04:58:06;;;;;;;;;;;;;;;27.14;55.99;100177.31;4430704;32;32346;-77
2023/07/18 05:00:34;;;;;;;;;;;;;;;27.42;53.74;100177.72;4444175;32;34117;-77
2023/07/18 05:03:01;;;;;;;;;;;;;;;27.40;53.65;100189.28;4424206;32;34636;-77
2023/07/18 05:05:29;;;;;;;;;;;;;;;27.44;53.60;100188.34;4437747;32;33940;-77
2023/07/18 05:07:58;;;;;;;;;;;;;;;27.57;53.11;100189.87;4442487;32;33977;-77
2023/07/18 05:10:25;;;;;;;;;;;;;;;27.65;52.90;100193.25;4429513;32;32426;-78
2023/07/18 05:12:54;;;;;;;;;;;;;;;27.71;52.65;100194.03;4436179;32;34298;-78
2023/07/18 05:15:21;;;;;;;;;;;;;;;27.65;52.78;100195.91;4437631;32;34106;-78
2023/07/18 05:17:48;;;;;;;;;;;;;;;27.70;52.48;100202.91;4439294;32;34230;-78
2023/07/18 05:20:16;;;;;;;;;;;;;;;27.76;52.44;100208.16;4445148;32;34966;-79
2023/07/18 05:22:44;;;;;;;;;;;;;;;27.81;52.39;100206.25;4438834;32;34160;-78
2023/07/18 05:25:12;;;;;;;;;;;;;;;27.79;52.37;100213.41;4441584;32;34145;-78
2023/07/18 05:27:40;;;;;;;;;;;;;;;27.96;52.04;100200.66;4447143;32;34734;-78
2023/07/18 05:30:15;;;;;;;;;;;;;;;28.15;51.19;100194.97;4435900;32;34742;-77
2023/07/18 05:32:43;;;;;;;;;;;;;;;28.12;50.86;100203.00;4437661;32;34454;-78
2023/07/18 05:35:13;;;;;;;;;;;;;;;28.07;51.27;100196.87;4450432;32;33205;-77
2023/07/18 05:37:41;;;;;;;;;;;;;;;28.19;51.07;100204.62;4451690;32;34152;-78
2023/07/18 05:40:12;;;;;;;;;;;;;;;28.34;50.14;100211.44;4448970;32;34236;-78
2023/07/18 05:42:40;;;;;;;;;;;;;;;28.20;50.54;100203.72;4451954;32;34155;-77
2023/07/18 05:45:10;;;;;;;;;;;;;;;28.10;51.47;100207.50;4448994;32;33286;-78
2023/07/18 05:47:38;;;;;;;;;;;;;;;28.36;50.16;100198.97;4444402;32;34289;-78
2023/07/18 05:50:06;;;;;;;;;;;;;;;28.39;49.92;100199.72;4438162;32;33774;-78
2023/07/18 05:52:33;;;;;;;;;;;;;;;28.52;49.02;100191.53;4449453;32;35039;-79
2023/07/18 05:55:01;;;;;;;;;;;;;;;28.49;49.54;100199.53;4449051;32;34009;-79
2023/07/18 05:57:28;;;;;;;;;;;;;;;28.43;49.99;100201.44;4441800;32;33962;-78
2023/07/18 05:59:56;;;;;;;;;;;;;;;28.54;49.22;100208.34;4445304;32;34194;-78
2023/07/18 06:02:23;;;;;;;;;;;;;;;28.64;48.70;100217.88;4449755;32;34282;-81
2023/07/18 06:04:51;;;;;;;;;;;;;;;28.63;48.61;100214.34;4450620;32;34074;-76
2023/07/18 06:07:18;;;;;;;;;;;;;;;28.58;48.67;100215.34;4433411;32;34141;-76
2023/07/18 06:09:49;;;;;;;;;;;;;;;28.55;48.60;100220.75;4445137;32;33995;-76
2023/07/18 06:12:16;;;;;;;;;;;;;;;28.32;49.04;100229.22;4439087;32;35165;-77
2023/07/18 06:14:43;;;;;;;;;;;;;;;28.47;49.38;100214.69;4438058;32;34312;-77
2023/07/18 06:17:10;;;;;;;;;;;;;;;28.47;49.70;100217.34;4437894;32;35089;-76
2023/07/18 06:19:38;;;;;;;;;;;;;;;28.61;48.84;100225.97;4448079;32;34847;-79
2023/07/18 06:22:05;;;;;;;;;;;;;;;28.88;48.03;100226.22;4444862;32;33428;-78
2023/07/18 06:24:32;;;;;;;;;;;;;;;28.83;48.71;100221.88;4440286;32;33328;-76
2023/07/18 06:27:00;;;;;;;;;;;;;;;28.85;48.02;100226.28;4449513;32;33791;-75
2023/07/18 06:29:27;;;;;;;;;;;;;;;28.82;48.56;100225.47;4435321;32;34691;-75
2023/07/18 06:31:58;;;;;;;;;;;;;;;28.88;48.73;100224.44;4445063;32;34100;-75
2023/07/18 06:34:30;;;;;;;;;;;;;;;29.10;48.24;100230.13;4446991;32;33563;-75
2023/07/18 06:37:02;;;;;;;;;;;;;;;29.11;47.95;100225.66;4451930;32;34006;-75
2023/07/18 06:39:30;;;;;;;;;;;;;;;29.10;47.50;100235.44;4441715;32;35015;-75
2023/07/18 06:41:57;;;;;;;;;;;;;;;29.09;47.43;100228.38;4443367;32;34958;-75
2023/07/18 06:44:24;;;;;;;;;;;;;;;29.04;48.05;100229.41;4441277;32;34720;-75
2023/07/18 06:46:52;;;;;;;;;;;;;;;29.15;47.78;100228.25;4449071;32;33891;-75
2023/07/18 06:49:20;;;;;;;;;;;;;;;29.43;48.02;100245.34;4438883;32;34204;-75
2023/07/18 06:51:49;;;;;;;;;;;;;;;29.57;47.45;100241.41;4438931;32;34122;-75
2023/07/18 06:54:17;;;;;;;;;;;;;;;29.58;46.51;100248.47;4452319;32;34066;-75
2023/07/18 06:56:45;;;;;;;;;;;;;;;29.66;45.88;100250.09;4445738;32;34997;-75
2023/07/18 06:59:13;;;;;;;;;;;;;;;29.64;46.00;100251.91;4438582;32;33531;-75
2023/07/18 07:01:42;;;;;;;;;;;;;;;29.71;46.67;100253.47;4441373;32;34985;-75
2023/07/18 07:04:10;;;;;;;;;;;;;;;29.70;46.09;100257.09;4438988;32;34423;-75
2023/07/18 07:06:41;;;;;;;;;;;;;;;29.86;44.72;100258.44;4438812;32;34194;-75
2023/07/18 07:09:10;;;;;;;;;;;;;;;29.90;44.62;100265.47;4434099;32;33975;-75
2023/07/18 07:11:37;;;;;;;;;;;;;;;30.05;44.62;100268.63;4431717;32;32377;-75
2023/07/18 07:14:06;;;;;;;;;;;;;;;30.16;45.15;100264.72;4452833;32;34123;-75
2023/07/18 07:16:34;;;;;;;;;;;;;;;30.43;43.90;100261.34;4435815;32;32539;-75
2023/07/18 07:19:05;;;;;;;;;;;;;;;30.49;43.58;100261.16;4438900;32;34113;-75
2023/07/18 07:21:32;;;;;;;;;;;;;;;30.66;41.57;100266.00;4438850;32;34993;-75
2023/07/18 07:24:00;;;;;;;;;;;;;;;30.67;41.02;100263.25;4425022;32;32650;-75
2023/07/18 07:26:28;;;;;;;;;;;;;;;30.69;41.01;100272.09;4437567;32;34233;-75
2023/07/18 07:28:55;;;;;;;;;;;;;;;30.83;40.77;100247.63;4443921;32;34508;-75
2023/07/18 07:31:22;;;;;;;;;;;;;;;30.99;40.62;100258.72;4439918;32;34770;-75
2023/07/18 07:33:51;;;;;;;;;;;;;;;30.96;40.87;100253.47;4454186;32;33291;-75
2023/07/18 07:36:19;;;;;;;;;;;;;;;31.25;40.42;100259.66;4454283;32;34837;-75
2023/07/18 07:38:47;;;;;;;;;;;;;;;31.33;39.99;100266.53;4454310;32;35107;-76
2023/07/18 07:41:14;;;;;;;;;;;;;;;31.29;40.17;100256.84;4452406;32;34773;-76
2023/07/18 07:43:42;;;;;;;;;;;;;;;31.36;39.81;100260.19;4438426;32;32938;-76
2023/07/18 07:46:09;;;;;;;;;;;;;;;31.31;38.55;100263.03;4441217;32;34866;-75
2023/07/18 07:48:36;;;;;;;;;;;;;;;31.48;37.63;100267.81;4425841;32;33874;-75
2023/07/18 07:51:04;;;;;;;;;;;;;;;31.64;37.81;100270.87;4447273;32;34399;-75
2023/07/18 07:53:31;;;;;;;;;;;;;;;31.91;37.67;100270.78;4450125;32;33699;-75
2023/07/18 07:55:58;;;;;;;;;;;;;;;32.06;36.72;100272.06;4449105;32;34973;-76
2023/07/18 07:58:26;;;;;;;;;;;;;;;32.07;37.50;100272.03;4442251;32;34191;-75
2023/07/18 08:00:53;;;;;;;;;;;;;;;32.15;34.48;100273.56;4454185;32;34354;-76
2023/07/18 08:03:21;;;;;;;;;;;;;;;32.31;33.22;100270.22;4439533;32;33910;-76
2023/07/18 08:05:48;;;;;;;;;;;;;;;32.43;33.48;100265.31;4438455;32;34166;-76
2023/07/18 08:08:16;;;;;;;;;;;;;;;32.44;34.46;100267.97;4441114;32;34254;-75
2023/07/18 08:10:44;;;;;;;;;;;;;;;32.51;33.24;100265.94;4444300;32;34688;-75
2023/07/18 08:13:14;;;;;;;;;;;;;;;32.58;32.31;100272.81;4438805;32;33012;-75
2023/07/18 08:15:41;;;;;;;;;;;;;;;32.57;31.43;100265.72;4453484;32;33969;-75
2023/07/18 08:18:09;;;;;;;;;;;;;;;32.57;30.91;100268.41;4453986;32;33555;-75
2023/07/18 08:20:36;;;;;;;;;;;;;;;32.57;30.27;100276.44;4438318;32;34225;-76
2023/07/18 08:23:04;;;;;;;;;;;;;;;32.44;30.64;100269.78;4453806;32;33635;-75
2023/07/18 08:25:31;;;;;;;;;;;;;;;32.35;31.06;100265.62;4443226;32;32775;-76
2023/07/18 08:27:59;;;;;;;;;;;;;;;32.45;31.01;100266.12;4438243;32;33945;-76
2023/07/18 08:30:26;;;;;;;;;;;;;;;32.69;29.81;100261.69;4446542;32;33138;-75
2023/07/18 08:32:54;;;;;;;;;;;;;;;32.59;30.72;100261.16;4445482;32;33363;-75
2023/07/18 08:35:21;;;;;;;;;;;;;;;32.84;30.69;100257.53;4434309;32;33654;-76
2023/07/18 08:37:48;;;;;;;;;;;;;;;32.69;31.04;100265.22;4443696;32;34244;-76
2023/07/18 08:40:16;;;;;;;;;;;;;;;32.62;30.65;100261.03;4446509;32;34441;-76
2023/07/18 08:42:43;;;;;;;;;;;;;;;32.65;31.08;100258.25;4443074;32;34395;-75
2023/07/18 08:45:13;;;;;;;;;;;;;;;32.76;31.46;100260.50;4443884;32;34963;-76
2023/07/18 08:47:42;;;;;;;;;;;;;;;33.15;30.86;100264.31;4441703;32;33936;-75
2023/07/18 08:50:13;;;;;;;;;;;;;;;33.27;30.43;100263.84;4425779;32;34164;-76
2023/07/18 08:52:40;;;;;;;;;;;;;;;33.44;31.16;100258.63;4440607;32;32346;-76
2023/07/18 08:55:08;;;;;;;;;;;;;;;33.61;30.78;100265.06;4444373;32;32645;-76
2023/07/18 08:57:35;;;;;;;;;;;;;;;33.89;29.93;100260.25;4434800;32;34550;-76
2023/07/18 09:00:04;;;;;;;;;;;;;;;34.12;30.00;100255.66;4451924;32;33894;-76
2023/07/18 09:02:32;;;;;;;;;;;;;;;34.33;29.02;100261.03;4436314;32;32505;-76
2023/07/18 09:04:59;;;;;;;;;;;;;;;34.50;29.59;100260.22;4453071;32;34238;-76
2023/07/18 09:07:28;;;;;;;;;;;;;;;34.45;29.07;100257.75;4449534;32;33960;-76
2023/07/18 09:09:57;;;;;;;;;;;;;;;34.86;27.85;100258.47;4446945;32;35028;-76
2023/07/18 09:12:26;;;;;;;;;;;;;;;34.90;27.91;100259.19;4452757;32;33015;-76
2023/07/18 09:14:57;;;;;;;;;;;;;;;35.10;28.36;100260.03;4446381;32;34074;-76
2023/07/18 09:17:24;;;;;;;;;;;;;;;35.18;26.30;100255.19;4447137;32;33851;-75
2023/07/18 09:19:52;;;;;;;;;;;;;;;35.26;26.04;100246.72;4440964;32;33720;-75
2023/07/18 09:22:19;;;;;;;;;;;;;;;35.29;24.87;100244.72;4451299;32;33363;-77
2023/07/18 09:24:47;;;;;;;;;;;;;;;35.10;25.51;100235.81;4446948;32;34335;-76
2023/07/18 09:27:17;;;;;;;;;;;;;;;34.79;26.33;100231.94;4446260;32;34087;-77
2023/07/18 09:29:45;;;;;;;;;;;;;;;35.15;24.00;100231.06;4440995;32;34357;-76
2023/07/18 09:32:19;;;;;;;;;;;;;;;34.96;24.97;100223.03;4439302;32;33696;-77
2023/07/18 09:34:53;;;;;;;;;;;;;;;34.84;24.97;100229.91;4446114;32;33909;-76
2023/07/18 09:37:20;;;;;;;;;;;;;;;34.77;25.48;100231.16;4440459;32;34267;-76
2023/07/18 09:39:48;;;;;;;;;;;;;;;34.63;25.72;100229.97;4452792;32;34008;-76
2023/07/18 09:42:16;;;;;;;;;;;;;;;34.86;26.04;100225.31;4425646;32;31540;-76
2023/07/18 09:44:49;;;;;;;;;;;;;;;34.99;25.23;100229.16;4447051;32;34358;-76
2023/07/18 09:47:19;;;;;;;;;;;;;;;35.12;25.49;100220.44;4446105;32;34196;-76
2023/07/18 09:49:47;;;;;;;;;;;;;;;35.13;24.66;100216.81;4428017;32;34689;-76
2023/07/18 09:52:15;;;;;;;;;;;;;;;35.04;24.84;100224.41;4451612;32;33140;-76
2023/07/18 09:54:43;;;;;;;;;;;;;;;35.08;24.12;100218.84;4440747;32;33915;-77
2023/07/18 09:57:11;;;;;;;;;;;;;;;34.99;24.88;100214.81;4446280;32;34950;-76
2023/07/18 09:59:39;;;;;;;;;;;;;;;35.02;24.73;100220.94;4450039;32;34817;-76
2023/07/18 10:02:08;;;;;;;;;;;;;;;34.93;25.24;100210.63;4441629;32;33323;-77
2023/07/18 10:04:36;;;;;;;;;;;;;;;35.05;25.04;100199.22;4454223;32;33918;-76
2023/07/18 10:07:04;;;;;;;;;;;;;;;35.29;25.51;100201.62;4446936;32;34401;-76
2023/07/18 10:09:31;;;;;;;;;;;;;;;35.55;25.49;100196.72;4440520;32;34967;-74
2023/07/18 10:12:00;;;;;;;;;;;;;;;35.55;25.04;100191.34;4427815;32;33460;-74
2023/07/18 10:14:27;;;;;;;;;;;;;;;35.36;25.87;100186.91;4454780;32;33999;-74
2023/07/18 10:16:55;;;;;;;;;;;;;;;35.33;25.68;100179.00;4447838;32;34192;-74
2023/07/18 10:19:24;;;;;;;;;;;;;;;35.50;24.83;100177.22;4445700;32;35026;-74
2023/07/18 10:21:52;;;;;;;;;;;;;;;35.53;24.40;100171.69;4451817;32;33266;-74
2023/07/18 10:24:24;;;;;;;;;;;;;;;35.33;24.51;100176.31;4443681;32;34027;-74
2023/07/18 10:26:52;;;;;;;;;;;;;;;35.50;24.46;100177.22;4441357;32;34243;-74
2023/07/18 10:29:19;;;;;;;;;;;;;;;35.50;24.34;100182.63;4424263;32;34894;-74
2023/07/18 10:31:47;;;;;;;;;;;;;;;35.61;23.11;100185.63;4438901;32;33181;-74
2023/07/18 10:34:15;;;;;;;;;;;;;;;35.64;22.97;100180.09;4411921;32;33343;-74
2023/07/18 10:36:59;;;;;;;;;;;;;;;35.77;23.57;100159.59;4438372;32;34379;-74
2023/07/18 10:39:40;;;;;;;;;;;;;;;35.80;23.46;100164.84;4439179;32;34371;-74
2023/07/18 10:42:20;;;;;;;;;;;;;;;35.87;23.48;100157.28;4439096;32;34286;-74
2023/07/18 10:44:48;;;;;;;;;;;;;;;35.94;23.51;100147.03;4435221;32;33950;-74
2023/07/18 10:47:16;;;;;;;;;;;;;;;35.90;23.31;100148.19;4454588;32;33897;-73
2023/07/18 10:49:44;;;;;;;;;;;;;;;35.96;23.83;100153.22;4441021;32;32665;-73
2023/07/18 10:52:12;;;;;;;;;;;;;;;35.93;22.97;100154.28;4454391;32;33375;-74
2023/07/18 10:54:43;;;;;;;;;;;;;;;35.94;22.53;100149.75;4454685;32;34888;-74
2023/07/18 10:57:10;;;;;;;;;;;;;;;35.88;22.95;100155.47;4454447;32;34184;-72
2023/07/18 10:59:40;;;;;;;;;;;;;;;35.94;22.84;100155.13;4453935;32;34055;-74
2023/07/18 11:02:08;;;;;;;;;;;;;;;36.18;23.28;100144.81;4440151;32;31603;-73
2023/07/18 11:04:35;;;;;;;;;;;;;;;36.34;22.18;100144.84;4454490;32;33831;-74
2023/07/18 11:07:03;;;;;;;;;;;;;;;36.37;21.87;100140.16;4440174;32;34155;-74
2023/07/18 11:09:31;;;;;;;;;;;;;;;36.22;22.88;100135.63;4453999;32;34821;-74
2023/07/18 11:11:59;;;;;;;;;;;;;;;36.33;22.54;100135.87;4454205;32;33577;-73
2023/07/18 11:14:47;;;;;;;;;;;;;;;36.26;22.68;100131.81;4454429;32;33935;-74
2023/07/18 11:17:19;;;;;;;;;;;;;;;36.21;23.16;100126.66;4454148;32;35063;-74
2023/07/18 11:19:46;;;;;;;;;;;;;;;36.56;22.77;100137.22;4454349;32;33671;-74
2023/07/18 11:22:14;;;;;;;;;;;;;;;36.60;22.51;100125.31;4454614;32;33896;-74
2023/07/18 11:24:42;;;;;;;;;;;;;;;36.55;22.31;100127.41;4454520;32;34012;-75
2023/07/18 11:27:29;;;;;;;;;;;;;;;36.58;21.37;100127.22;4454375;32;35129;-75
2023/07/18 11:30:08;;;;;;;;;;;;;;;36.46;22.20;100124.38;4454474;32;34321;-74
2023/07/18 11:32:45;;;;;;;;;;;;;;;36.46;22.01;100114.47;4454344;32;33486;-74
2023/07/18 11:35:18;;;;;;;;;;;;;;;36.55;22.16;100122.03;4440788;32;35030;-74
2023/07/18 11:37:48;;;;;;;;;;;;;;;36.71;21.13;100113.91;4454201;32;34800;-75
2023/07/18 11:40:23;;;;;;;;;;;;;;;36.63;21.87;100108.09;4453761;32;34410;-74
2023/07/18 11:42:51;;;;;;;;;;;;;;;36.78;22.18;100104.50;4454189;32;33427;-74
2023/07/18 11:45:20;;;;;;;;;;;;;;;37.00;20.98;100104.06;4454279;32;33879;-74
2023/07/18 11:47:48;;;;;;;;;;;;;;;36.87;21.08;100108.47;4454359;32;34155;-75
2023/07/18 11:50:16;;;;;;;;;;;;;;;36.81;21.26;100103.44;4453831;32;33853;-74
2023/07/18 11:52:47;;;;;;;;;;;;;;;36.75;21.55;100087.63;4451024;32;33125;-74
2023/07/18 11:55:15;;;;;;;;;;;;;;;36.53;22.11;100105.06;4428423;32;33663;-73
2023/07/18 11:57:43;;;;;;;;;;;;;;;36.52;21.96;100097.91;4448651;32;34975;-75
2023/07/18 12:00:11;;;;;;;;;;;;;;;36.45;21.94;100095.66;4449396;32;34435;-76
2023/07/18 12:02:39;;;;;;;;;;;;;;;36.64;21.69;100095.44;4453644;32;34087;-76
2023/07/18 12:05:07;;;;;;;;;;;;;;;36.75;21.55;100093.03;4453580;32;33962;-76
2023/07/18 12:07:34;;;;;;;;;;;;;;;36.94;21.51;100090.94;4452506;32;34224;-73
2023/07/18 12:10:02;;;;;;;;;;;;;;;36.79;20.86;100081.06;4435893;32;34026;-73
2023/07/18 12:12:30;;;;;;;;;;;;;;;36.86;21.37;100084.25;4444729;32;33676;-72
2023/07/18 12:14:57;;;;;;;;;;;;;;;36.72;21.38;100082.38;4453468;32;35071;-72
2023/07/18 12:17:24;;;;;;;;;;;;;;;36.68;21.67;100075.44;4453549;32;34252;-73
2023/07/18 12:19:52;;;;;;;;;;;;;;;36.60;20.48;100071.31;4452996;32;33557;-74
2023/07/18 12:22:19;;;;;;;;;;;;;;;36.39;21.38;100072.59;4438892;32;34064;-74
2023/07/18 12:24:47;;;;;;;;;;;;;;;36.60;21.72;100068.63;4452750;32;34103;-74
2023/07/18 12:27:15;;;;;;;;;;;;;;;36.76;20.85;100067.75;4453304;32;33849;-74
2023/07/18 12:29:42;;;;;;;;;;;;;;;36.81;20.75;100065.66;4428821;32;34200;-74
2023/07/18 12:32:10;;;;;;;;;;;;;;;36.79;21.45;100062.19;4440675;32;32826;-74
2023/07/18 12:34:39;;;;;;;;;;;;;;;36.88;21.52;100058.94;4439569;32;35058;-74
2023/07/18 12:37:06;;;;;;;;;;;;;;;36.93;21.10;100058.63;4453344;32;34179;-74
2023/07/18 12:39:34;;;;;;;;;;;;;;;36.90;21.28;100053.44;4445504;32;33988;-75
2023/07/18 12:42:01;;;;;;;;;;;;;;;37.06;20.90;100048.81;4451367;32;34047;-74